createdAt,value
2023-02-28T00:01:28.292Z,6.82
2023-02-28T00:04:01.540Z,5.47
2023-02-28T00:06:34.526Z,5.57
2023-02-28T00:09:07.500Z,5.97
2023-02-28T00:11:40.338Z,6.90
2023-02-28T00:14:14.634Z,6.28
2023-02-28T00:16:47.659Z,5.45
2023-02-28T00:19:20.639Z,5.90
2023-02-28T00:21:53.553Z,6.32
2023-02-28T00:24:26.463Z,4.20
2023-02-28T00:26:59.362Z,4.80
2023-02-28T00:29:33.724Z,4.97
2023-02-28T00:32:07.838Z,6.13
2023-02-28T00:34:40.964Z,6.95
2023-02-28T00:37:14.345Z,6.28
2023-02-28T00:39:47.608Z,5.40
2023-02-28T00:42:20.604Z,7.05
2023-02-28T00:44:55.238Z,6.38
2023-02-28T00:47:28.423Z,7.00
2023-02-28T00:50:01.880Z,5.00
2023-02-28T00:52:34.762Z,5.60
2023-02-28T00:55:08.131Z,5.50
2023-02-28T00:57:41.148Z,5.63
2023-02-28T01:00:17.162Z,7.50
2023-02-28T01:02:50.149Z,5.95
2023-02-28T01:05:23.144Z,6.13
2023-02-28T01:07:56.008Z,7.82
2023-02-28T01:10:32.488Z,6.07
2023-02-28T01:13:05.502Z,6.15
2023-02-28T01:15:52.316Z,6.35
2023-02-28T01:18:25.605Z,5.78
2023-02-28T01:20:58.493Z,6.57
2023-02-28T01:23:31.408Z,6.30
2023-02-28T01:26:06.996Z,7.13
2023-02-28T01:28:40.190Z,7.57
2023-02-28T01:31:14.852Z,5.57
2023-02-28T01:33:48.315Z,5.63
2023-02-28T01:36:23.597Z,6.35
2023-02-28T01:38:56.534Z,7.22
2023-02-28T01:41:32.531Z,6.57
2023-02-28T01:44:07.935Z,6.30
2023-02-28T01:46:42.373Z,6.00
2023-02-28T01:49:19.045Z,5.75
2023-02-28T01:51:56.297Z,5.93
2023-02-28T01:54:33.623Z,6.20
2023-02-28T01:57:11.820Z,10.13
2023-02-28T01:59:49.728Z,6.35
2023-02-28T02:02:26.379Z,6.43
2023-02-28T02:05:03.184Z,4.72
2023-02-28T02:07:39.070Z,7.82
2023-02-28T02:10:16.017Z,6.88
2023-02-28T02:13:06.900Z,7.13
2023-02-28T02:15:47.260Z,5.85
2023-02-28T02:18:33.835Z,7.20
2023-02-28T02:21:31.875Z,5.82
2023-02-28T02:24:37.877Z,5.60
2023-02-28T02:27:22.520Z,5.50
2023-02-28T02:30:30.240Z,5.18
2023-02-28T02:33:38.395Z,6.47
2023-02-28T02:36:18.345Z,5.50
2023-02-28T02:38:55.489Z,5.40
2023-02-28T02:41:37.496Z,6.40
2023-02-28T02:44:20.693Z,4.70
2023-02-28T02:46:56.929Z,5.43
2023-02-28T02:49:33.527Z,5.75
2023-02-28T02:52:13.011Z,6.07
2023-02-28T02:54:49.276Z,4.55
2023-02-28T02:57:27.848Z,5.82
2023-02-28T03:00:02.741Z,5.38
2023-02-28T03:02:38.734Z,5.05
2023-02-28T03:05:21.279Z,5.78
2023-02-28T03:07:55.755Z,6.55
2023-02-28T03:10:36.012Z,5.70
2023-02-28T03:13:34.003Z,5.10
2023-02-28T03:16:26.128Z,6.10
2023-02-28T03:19:11.403Z,6.63
2023-02-28T03:21:52.399Z,6.05
2023-02-28T03:24:34.565Z,6.53
2023-02-28T03:27:11.862Z,5.45
2023-02-28T03:29:50.162Z,6.22
2023-02-28T03:32:28.964Z,5.53
2023-02-28T03:35:08.981Z,5.63
2023-02-28T03:37:46.001Z,4.97
2023-02-28T03:40:25.384Z,6.50
2023-02-28T03:43:03.542Z,5.95
2023-02-28T03:45:39.174Z,5.30
2023-02-28T03:48:15.959Z,5.65
2023-02-28T03:50:55.301Z,7.50
2023-02-28T03:53:32.825Z,5.15
2023-02-28T03:56:13.393Z,5.50
2023-02-28T03:58:53.710Z,6.32
2023-02-28T04:01:31.284Z,6.10
2023-02-28T04:04:05.871Z,5.60
2023-02-28T04:06:39.220Z,6.75
2023-02-28T04:09:14.253Z,6.03
2023-02-28T04:11:53.615Z,5.35
2023-02-28T04:14:26.821Z,6.35
2023-02-28T04:16:59.820Z,6.35
2023-02-28T04:19:33.047Z,5.68
2023-02-28T04:22:05.945Z,12.10
2023-02-28T04:24:42.391Z,4.43
2023-02-28T04:27:17.202Z,5.38
2023-02-28T04:29:50.068Z,6.38
2023-02-28T04:32:22.967Z,5.90
2023-02-28T04:34:56.885Z,5.72
2023-02-28T04:37:29.920Z,6.20
2023-02-28T04:40:03.627Z,4.65
2023-02-28T04:42:38.063Z,5.38
2023-02-28T04:45:12.070Z,5.93
2023-02-28T04:47:45.167Z,5.15
2023-02-28T04:50:18.343Z,4.80
2023-02-28T04:52:51.308Z,5.03
2023-02-28T04:55:24.253Z,5.03
2023-02-28T04:57:58.901Z,4.95
2023-02-28T05:00:31.909Z,5.35
2023-02-28T05:03:05.087Z,5.32
2023-02-28T05:05:38.112Z,5.88
2023-02-28T05:08:11.541Z,4.93
2023-02-28T05:10:44.622Z,5.13
2023-02-28T05:13:19.099Z,5.80
2023-02-28T05:15:52.173Z,4.18
2023-02-28T05:18:25.224Z,5.38
2023-02-28T05:20:58.183Z,5.40
2023-02-28T05:23:31.592Z,6.60
2023-02-28T05:26:04.561Z,5.45
2023-02-28T05:28:38.950Z,4.43
2023-02-28T05:31:13.398Z,4.40
2023-02-28T05:33:46.493Z,5.25
2023-02-28T05:36:19.632Z,4.70
2023-02-28T05:38:53.360Z,5.90
2023-02-28T05:41:27.276Z,4.82
2023-02-28T05:44:02.458Z,6.40
2023-02-28T05:46:37.204Z,6.10
2023-02-28T05:49:10.256Z,5.47
2023-02-28T05:51:43.547Z,6.28
2023-02-28T05:54:16.750Z,4.75
2023-02-28T05:56:49.815Z,4.85
2023-02-28T05:59:24.551Z,6.03
2023-02-28T06:01:57.744Z,7.93
2023-02-28T06:04:32.106Z,5.88
2023-02-28T06:07:05.324Z,6.70
2023-02-28T06:09:38.950Z,5.70
2023-02-28T06:12:12.764Z,6.18
2023-02-28T06:14:47.359Z,7.30
2023-02-28T06:17:20.282Z,6.28
2023-02-28T06:19:53.232Z,6.95
2023-02-28T06:22:26.443Z,5.68
2023-02-28T06:24:59.405Z,5.75
2023-02-28T06:27:32.765Z,8.48
2023-02-28T06:30:08.364Z,5.82
2023-02-28T06:32:41.372Z,7.70
2023-02-28T06:35:14.755Z,5.43
2023-02-28T06:37:48.254Z,7.10
2023-02-28T06:40:21.391Z,7.30
2023-02-28T06:42:54.511Z,8.93
2023-02-28T06:45:28.960Z,4.85
2023-02-28T06:48:01.876Z,5.85
2023-02-28T06:50:34.773Z,5.85
2023-02-28T06:53:07.726Z,5.97
2023-02-28T06:55:40.936Z,6.15
2023-02-28T06:58:19.037Z,5.68
2023-02-28T07:00:54.562Z,6.47
2023-02-28T07:03:27.845Z,6.47
2023-02-28T07:06:01.140Z,6.05
2023-02-28T07:08:34.162Z,7.03
2023-02-28T07:11:07.100Z,8.45
2023-02-28T07:13:40.415Z,8.55
2023-02-28T07:16:16.888Z,8.25
2023-02-28T07:18:50.135Z,7.03
2023-02-28T07:21:23.350Z,7.95
2023-02-28T07:23:56.334Z,8.23
2023-02-28T07:26:29.350Z,6.95
2023-02-28T07:29:03.204Z,7.43
2023-02-28T07:31:37.632Z,8.88
2023-02-28T07:34:10.508Z,6.68
2023-02-28T07:36:43.426Z,6.88
2023-02-28T07:39:16.445Z,7.65
2023-02-28T07:41:49.652Z,8.63
2023-02-28T07:44:22.701Z,7.72
2023-02-28T07:46:57.367Z,7.15
2023-02-28T07:49:30.360Z,8.27
2023-02-28T07:52:03.581Z,8.73
2023-02-28T07:54:36.730Z,8.10
2023-02-28T07:57:09.645Z,8.52
2023-02-28T07:59:43.858Z,8.13
2023-02-28T08:02:20.674Z,11.10
2023-02-28T08:04:53.726Z,9.73
2023-02-28T08:07:26.710Z,6.15
2023-02-28T08:09:59.711Z,9.45
2023-02-28T08:12:32.953Z,6.53
2023-02-28T08:15:06.653Z,8.05
2023-02-28T08:17:41.082Z,8.25
2023-02-28T08:20:14.795Z,9.40
2023-02-28T08:22:47.705Z,8.52
2023-02-28T08:25:21.042Z,9.10
2023-02-28T08:27:54.195Z,8.18
2023-02-28T08:30:27.268Z,7.22
2023-02-28T08:33:02.866Z,7.22
2023-02-28T08:35:38.470Z,6.88
2023-02-28T08:38:11.406Z,8.43
2023-02-28T08:40:45.112Z,7.25
2023-02-28T08:43:18.406Z,8.23
2023-02-28T08:45:54.042Z,7.68
2023-02-28T08:48:30.909Z,6.63
2023-02-28T08:51:07.796Z,6.47
2023-02-28T08:53:45.170Z,7.68
2023-02-28T08:56:19.219Z,9.00
2023-02-28T08:58:52.753Z,7.60
2023-02-28T09:01:29.004Z,8.07
2023-02-28T09:04:03.682Z,8.30
2023-02-28T09:06:39.782Z,7.28
2023-02-28T09:09:12.951Z,8.02
2023-02-28T09:11:46.156Z,8.60
2023-02-28T09:14:19.643Z,7.25
2023-02-28T09:16:52.886Z,8.63
2023-02-28T09:19:27.460Z,8.40
2023-02-28T09:22:00.565Z,7.63
2023-02-28T09:24:34.036Z,7.88
2023-02-28T09:27:08.206Z,7.85
2023-02-28T09:29:41.817Z,7.45
2023-02-28T09:32:15.473Z,9.25
2023-02-28T09:34:49.997Z,7.88
2023-02-28T09:37:23.625Z,12.75
2023-02-28T09:39:57.094Z,8.43
2023-02-28T09:42:34.829Z,9.15
2023-02-28T09:45:18.375Z,8.65
2023-02-28T09:47:53.970Z,9.20
2023-02-28T09:50:36.054Z,7.85
2023-02-28T09:53:23.825Z,9.45
2023-02-28T09:56:01.746Z,10.07
2023-02-28T09:58:44.022Z,9.52
2023-02-28T10:01:24.217Z,9.30
2023-02-28T10:04:01.738Z,9.85
2023-02-28T10:06:45.371Z,9.23
2023-02-28T10:09:23.758Z,8.18
2023-02-28T10:12:03.373Z,8.73
2023-02-28T10:14:37.659Z,9.60
2023-02-28T10:17:15.326Z,9.32
2023-02-28T10:19:58.458Z,7.80
2023-02-28T10:22:42.304Z,9.02
2023-02-28T10:25:23.439Z,9.57
2023-02-28T10:28:00.262Z,8.38
2023-02-28T10:30:33.600Z,9.55
2023-02-28T10:33:06.775Z,9.25
2023-02-28T10:35:39.681Z,8.93
2023-02-28T10:38:19.179Z,8.93
2023-02-28T10:40:53.341Z,8.88
2023-02-28T10:43:26.800Z,10.68
2023-02-28T10:46:06.008Z,8.90
2023-02-28T10:48:41.595Z,8.48
2023-02-28T10:51:16.336Z,8.43
2023-02-28T10:54:02.699Z,8.63
2023-02-28T10:56:36.152Z,9.68
2023-02-28T10:59:30.468Z,10.43
2023-02-28T11:02:03.756Z,9.15
2023-02-28T11:04:41.424Z,9.10
2023-02-28T11:07:22.234Z,9.52
2023-02-28T11:10:00.038Z,9.93
2023-02-28T11:12:47.246Z,9.70
